Time;durP1;ratioP1;P1;durP2;ratioP2;P2;SDS_P1;SDS_P2;PMS_P1;PMS_P2;Temp;Humidity;BMP_temperature;BMP_pressure;BME280_temperature;BME280_humidity;BME280_pressure;Samples;Min_cycle;Max_cycle;Signal;HPM_P1;HPM_P2
2022/01/04 00:00:42;;;;;;;6.88;3.00;;;;;;;;;;5045091;28;20025;-55
2022/01/04 00:03:08;;;;;;;7.32;3.17;;;;;;;;;;5075315;28;20059;-61
2022/01/04 00:05:33;;;;;;;6.65;3.20;;;;;;;;;;5121299;27;20035;-61
2022/01/04 00:08:00;;;;;;;9.75;3.53;;;;;;;;;;5082144;28;20485;-59
2022/01/04 00:10:27;;;;;;;8.60;3.20;;;;;;;;;;4970887;28;20035;-61
2022/01/04 00:15:41;;;;;;;5.60;3.05;;;;;;;;;;4830062;29;20053;-61
2022/01/04 00:18:06;;;;;;;6.55;3.47;;;;;;;;;;4772079;29;20538;-61
2022/01/04 00:23:22;;;;;;;8.23;3.72;;;;;;;;;;5172192;27;20117;-58
2022/01/04 00:25:48;;;;;;;7.85;3.60;;;;;;;;;;5169624;27;20034;-59
2022/01/04 00:28:13;;;;;;;6.47;3.30;;;;;;;;;;5158074;27;20757;-59
2022/01/04 00:30:39;;;;;;;6.43;3.53;;;;;;;;;;5119911;27;20115;-59
2022/01/04 00:33:07;;;;;;;7.00;3.15;;;;;;;;;;4964860;28;1390549;-58
2022/01/04 00:35:34;;;;;;;7.07;3.53;;;;;;;;;;4963097;28;20023;-58
2022/01/04 00:38:00;;;;;;;8.30;3.20;;;;;;;;;;4918628;29;20525;-60
2022/01/04 00:40:26;;;;;;;5.75;2.83;;;;;;;;;;4878926;29;20041;-60
2022/01/04 00:42:55;;;;;;;4.47;2.90;;;;;;;;;;4827768;29;20124;-60
2022/01/04 00:45:22;;;;;;;6.20;2.90;;;;;;;;;;4861522;29;20113;-60
2022/01/04 00:50:19;;;;;;;7.30;3.30;;;;;;;;;;4544197;30;1270313;-59
2022/01/04 00:52:44;;;;;;;11.55;3.13;;;;;;;;;;4547461;31;20345;-59
2022/01/04 00:55:10;;;;;;;7.57;2.65;;;;;;;;;;4514582;31;20062;-60
2022/01/04 00:57:36;;;;;;;5.13;2.90;;;;;;;;;;4514990;31;20050;-60
2022/01/04 01:00:02;;;;;;;4.22;3.08;;;;;;;;;;4514043;31;20046;-56
2022/01/04 01:02:27;;;;;;;4.97;3.38;;;;;;;;;;4514064;31;20577;-59
2022/01/04 01:04:53;;;;;;;9.88;3.85;;;;;;;;;;4515048;31;20039;-61
2022/01/04 01:07:18;;;;;;;6.00;3.80;;;;;;;;;;4511922;31;20343;-60
2022/01/04 01:10:01;;;;;;;5.38;3.38;;;;;;;;;;4515397;31;20154;-61
2022/01/04 01:12:26;;;;;;;5.40;3.28;;;;;;;;;;4511769;31;20479;-60
2022/01/04 01:14:52;;;;;;;6.50;3.00;;;;;;;;;;4514781;31;20133;-58
2022/01/04 01:17:18;;;;;;;6.00;3.60;;;;;;;;;;4513871;31;20042;-62
2022/01/04 01:19:43;;;;;;;4.68;2.97;;;;;;;;;;4513941;31;20053;-60
2022/01/04 01:22:09;;;;;;;5.15;3.00;;;;;;;;;;4515480;31;20050;-59
2022/01/04 01:24:34;;;;;;;4.95;3.00;;;;;;;;;;4512287;31;20042;-60
2022/01/04 01:26:59;;;;;;;5.72;3.63;;;;;;;;;;4512206;31;20069;-60
2022/01/04 01:29:25;;;;;;;6.15;3.10;;;;;;;;;;4514451;31;20053;-58
2022/01/04 01:31:50;;;;;;;4.65;3.40;;;;;;;;;;4513415;31;20039;-60
2022/01/04 01:34:15;;;;;;;5.53;3.22;;;;;;;;;;4462080;31;20051;-61
2022/01/04 01:36:41;;;;;;;5.05;3.00;;;;;;;;;;4457043;32;20669;-58
2022/01/04 01:39:06;;;;;;;9.18;3.00;;;;;;;;;;4482488;31;20133;-61
2022/01/04 01:41:32;;;;;;;6.10;3.20;;;;;;;;;;4490016;31;20042;-60
2022/01/04 01:43:57;;;;;;;5.43;3.30;;;;;;;;;;4486113;31;20598;-60
2022/01/04 01:46:22;;;;;;;4.80;2.83;;;;;;;;;;4474836;31;20514;-60
2022/01/04 01:48:48;;;;;;;5.47;3.05;;;;;;;;;;4609884;29;20033;-59
2022/01/04 01:51:16;;;;;;;4.78;2.92;;;;;;;;;;4617394;30;20156;-59
2022/01/04 01:53:42;;;;;;;5.57;3.17;;;;;;;;;;4681653;30;20033;-60
2022/01/04 01:56:08;;;;;;;5.50;2.70;;;;;;;;;;4665211;30;20088;-55
2022/01/04 01:58:33;;;;;;;5.45;3.13;;;;;;;;;;4666599;30;20038;-58
2022/01/04 02:00:58;;;;;;;5.07;3.30;;;;;;;;;;4668775;30;20056;-59
2022/01/04 02:03:24;;;;;;;4.35;3.03;;;;;;;;;;4664741;30;20799;-59
2022/01/04 02:05:51;;;;;;;4.13;3.08;;;;;;;;;;4668123;30;20527;-59
2022/01/04 02:08:18;;;;;;;4.65;3.10;;;;;;;;;;4664530;30;20145;-57
2022/01/04 02:10:45;;;;;;;4.25;2.90;;;;;;;;;;4666423;30;20038;-56
2022/01/04 02:13:10;;;;;;;3.78;2.60;;;;;;;;;;4667663;30;20408;-60
2022/01/04 02:15:35;;;;;;;4.07;2.40;;;;;;;;;;4668035;30;20074;-59
2022/01/04 02:18:02;;;;;;;2.47;2.28;;;;;;;;;;4667453;30;20035;-61
2022/01/04 02:20:28;;;;;;;2.97;2.67;;;;;;;;;;4668465;30;20041;-60
2022/01/04 02:22:54;;;;;;;3.47;2.40;;;;;;;;;;4666295;30;20096;-58
2022/01/04 02:25:20;;;;;;;4.25;2.75;;;;;;;;;;4666217;30;20465;-58
2022/01/04 02:27:45;;;;;;;3.13;2.58;;;;;;;;;;4665935;30;20764;-59
2022/01/04 02:30:14;;;;;;;4.05;2.70;;;;;;;;;;4667132;30;20086;-60
2022/01/04 02:32:41;;;;;;;4.70;2.97;;;;;;;;;;4663776;30;21729;-60
2022/01/04 02:35:07;;;;;;;7.53;2.72;;;;;;;;;;4671463;30;20136;-60
2022/01/04 02:37:33;;;;;;;5.85;2.75;;;;;;;;;;4679252;30;20037;-60
2022/01/04 02:39:58;;;;;;;3.78;2.63;;;;;;;;;;4701429;30;21213;-58
2022/01/04 02:42:24;;;;;;;3.78;2.50;;;;;;;;;;4692335;30;20499;-59
2022/01/04 02:44:49;;;;;;;3.90;2.88;;;;;;;;;;4693599;30;20063;-61
2022/01/04 02:47:16;;;;;;;6.07;2.80;;;;;;;;;;4717838;29;20051;-61
2022/01/04 02:49:42;;;;;;;5.28;3.05;;;;;;;;;;4659482;30;1082291;-62
2022/01/04 02:52:08;;;;;;;3.35;2.78;;;;;;;;;;4747145;30;20172;-60
2022/01/04 02:54:33;;;;;;;3.70;2.65;;;;;;;;;;4762651;30;20032;-58
2022/01/04 02:56:59;;;;;;;5.50;2.53;;;;;;;;;;4772355;30;20028;-59
2022/01/04 02:59:25;;;;;;;5.15;2.92;;;;;;;;;;4770941;30;20039;-58
2022/01/04 03:01:50;;;;;;;3.58;2.95;;;;;;;;;;4773758;30;20108;-59
2022/01/04 03:04:15;;;;;;;4.57;2.90;;;;;;;;;;4771722;30;20043;-59
2022/01/04 03:06:41;;;;;;;3.80;2.92;;;;;;;;;;4770204;30;20365;-60
2022/01/04 03:09:07;;;;;;;5.07;2.45;;;;;;;;;;4775241;30;20038;-59
2022/01/04 03:11:33;;;;;;;4.05;2.55;;;;;;;;;;4771019;30;20036;-58
2022/01/04 03:14:00;;;;;;;3.40;2.70;;;;;;;;;;4773760;30;20039;-60
2022/01/04 03:16:25;;;;;;;5.80;2.67;;;;;;;;;;4770151;30;20851;-60
2022/01/04 03:19:03;;;;;;;2.90;2.63;;;;;;;;;;4772482;29;20054;-58
2022/01/04 03:21:37;;;;;;;5.00;3.22;;;;;;;;;;4772260;29;20031;-59
2022/01/04 03:24:05;;;;;;;4.55;3.20;;;;;;;;;;4787281;29;20496;-61
2022/01/04 03:26:31;;;;;;;3.20;2.80;;;;;;;;;;4771392;30;20039;-60
2022/01/04 03:28:57;;;;;;;3.58;2.90;;;;;;;;;;4782950;29;20474;-58
2022/01/04 03:31:22;;;;;;;5.15;2.85;;;;;;;;;;4772857;29;20089;-60
2022/01/04 03:33:48;;;;;;;6.95;2.63;;;;;;;;;;4795819;29;20041;-60
2022/01/04 03:36:14;;;;;;;4.38;2.88;;;;;;;;;;4807445;29;21317;-61
2022/01/04 03:38:41;;;;;;;2.85;2.45;;;;;;;;;;4823311;29;20038;-58
2022/01/04 03:41:08;;;;;;;4.75;3.15;;;;;;;;;;4805315;29;20038;-59
2022/01/04 03:43:34;;;;;;;4.20;2.28;;;;;;;;;;4806567;29;20042;-59
2022/01/04 03:46:00;;;;;;;3.58;2.35;;;;;;;;;;4812887;29;20034;-61
2022/01/04 03:48:25;;;;;;;3.90;2.30;;;;;;;;;;4911752;29;20541;-60
2022/01/04 03:50:51;;;;;;;4.53;2.78;;;;;;;;;;4935668;28;20448;-63
2022/01/04 03:53:16;;;;;;;3.67;2.42;;;;;;;;;;4928877;28;20031;-59
2022/01/04 03:55:41;;;;;;;3.35;2.63;;;;;;;;;;4945478;28;20389;-60
2022/01/04 03:58:07;;;;;;;3.35;2.58;;;;;;;;;;4947830;28;20019;-59
2022/01/04 04:00:32;;;;;;;5.22;2.83;;;;;;;;;;4948202;28;20039;-59
2022/01/04 04:02:57;;;;;;;6.90;3.47;;;;;;;;;;4947302;28;20050;-60
2022/01/04 04:05:23;;;;;;;5.50;3.85;;;;;;;;;;4946438;28;20447;-59
2022/01/04 04:07:48;;;;;;;5.95;5.05;;;;;;;;;;4946160;28;20146;-61
2022/01/04 04:10:14;;;;;;;6.57;4.78;;;;;;;;;;4944286;28;20038;-57
2022/01/04 04:12:39;;;;;;;6.53;5.20;;;;;;;;;;4945024;28;20083;-59
2022/01/04 04:15:08;;;;;;;4.93;4.43;;;;;;;;;;4947133;28;20058;-60
2022/01/04 04:17:34;;;;;;;5.72;4.82;;;;;;;;;;4944258;28;20027;-61
2022/01/04 04:20:00;;;;;;;5.68;5.00;;;;;;;;;;4947260;28;20023;-61
2022/01/04 04:22:25;;;;;;;5.60;5.00;;;;;;;;;;4944996;28;20063;-59
2022/01/04 04:24:51;;;;;;;5.47;4.55;;;;;;;;;;4945964;28;20395;-61
2022/01/04 04:27:16;;;;;;;5.05;4.55;;;;;;;;;;4944992;28;20090;-61
2022/01/04 04:29:42;;;;;;;10.18;4.97;;;;;;;;;;4945967;28;20035;-57
2022/01/04 04:32:08;;;;;;;6.00;4.57;;;;;;;;;;4942410;28;20531;-59
2022/01/04 04:34:34;;;;;;;7.28;5.10;;;;;;;;;;4952695;28;20031;-59
2022/01/04 04:37:00;;;;;;;6.63;5.03;;;;;;;;;;4922471;28;20503;-59
2022/01/04 04:39:25;;;;;;;5.88;4.95;;;;;;;;;;4946247;28;20416;-60
2022/01/04 04:41:50;;;;;;;7.00;4.93;;;;;;;;;;4950269;28;20500;-63
2022/01/04 04:44:16;;;;;;;6.95;4.93;;;;;;;;;;4980605;28;20030;-60
2022/01/04 04:46:42;;;;;;;7.60;5.18;;;;;;;;;;4927890;28;20035;-58
2022/01/04 04:49:07;;;;;;;6.85;4.80;;;;;;;;;;4885429;29;20122;-59
2022/01/04 04:51:33;;;;;;;6.53;4.80;;;;;;;;;;4775865;29;20041;-60
2022/01/04 04:56:51;;;;;;;8.35;5.10;;;;;;;;;;5169658;27;20707;-56
2022/01/04 04:59:16;;;;;;;5.63;4.55;;;;;;;;;;5155713;27;20489;-52
2022/01/04 05:01:41;;;;;;;7.78;4.63;;;;;;;;;;5141026;27;20045;-54
2022/01/04 05:04:07;;;;;;;4.70;3.90;;;;;;;;;;5105895;27;20020;-52
2022/01/04 05:06:32;;;;;;;9.13;4.25;;;;;;;;;;5075740;28;20025;-54
2022/01/04 05:08:58;;;;;;;5.75;4.03;;;;;;;;;;5034457;28;20390;-56
2022/01/04 05:11:23;;;;;;;4.40;4.00;;;;;;;;;;5014212;28;20048;-56
2022/01/04 05:13:49;;;;;;;5.28;3.90;;;;;;;;;;4904294;28;20041;-57
2022/01/04 05:16:14;;;;;;;5.80;4.60;;;;;;;;;;4783560;29;20063;-56
2022/01/04 05:21:47;;;;;;;6.45;4.60;;;;;;;;;;5176058;27;19931;-52
2022/01/04 05:24:12;;;;;;;5.38;4.40;;;;;;;;;;5164971;27;20033;-53
2022/01/04 05:26:38;;;;;;;6.70;4.57;;;;;;;;;;5172097;27;20046;-57
2022/01/04 05:29:03;;;;;;;5.90;4.25;;;;;;;;;;5155591;27;20122;-54
2022/01/04 05:31:29;;;;;;;6.85;4.40;;;;;;;;;;5119861;27;20112;-51
2022/01/04 05:33:54;;;;;;;6.30;4.82;;;;;;;;;;5066146;28;20028;-56
2022/01/04 05:36:20;;;;;;;5.28;3.90;;;;;;;;;;4972337;28;20061;-52
2022/01/04 05:38:47;;;;;;;3.80;3.35;;;;;;;;;;4927264;28;20164;-58
2022/01/04 05:41:13;;;;;;;4.32;3.30;;;;;;;;;;4843420;29;20317;-57
2022/01/04 05:43:38;;;;;;;3.75;3.10;;;;;;;;;;4792630;29;20046;-52
2022/01/04 05:47:36;;;;;;;7.65;5.50;;;;;;;;;;5157757;27;20744;-51
2022/01/04 05:50:05;;;;;;;1.65;1.40;;;;;;;;;;5162479;27;20029;-50
2022/01/04 05:52:31;;;;;;;0.65;0.65;;;;;;;;;;5131761;27;20041;-50
2022/01/04 05:54:56;;;;;;;0.68;0.57;;;;;;;;;;5174231;27;20022;-52
2022/01/04 05:57:21;;;;;;;1.13;0.40;;;;;;;;;;5112038;27;20204;-56
2022/01/04 05:59:47;;;;;;;0.65;0.40;;;;;;;;;;4965730;28;20441;-53
2022/01/04 06:02:12;;;;;;;0.60;0.30;;;;;;;;;;4868939;28;20034;-51
2022/01/04 06:04:37;;;;;;;1.98;0.80;;;;;;;;;;4758047;29;20121;-52
2022/01/04 06:07:03;;;;;;;2.08;0.90;;;;;;;;;;4631494;30;20051;-53
2022/01/04 06:14:54;;;;;;;1.48;0.30;;;;;;;;;;5158403;27;20050;-53
2022/01/04 06:17:29;;;;;;;1.03;0.50;;;;;;;;;;5056342;27;1970398;-56
2022/01/04 06:19:55;;;;;;;0.73;0.25;;;;;;;;;;5123400;28;20023;-55
2022/01/04 06:22:21;;;;;;;1.05;0.20;;;;;;;;;;5108931;27;20486;-54
2022/01/04 06:24:47;;;;;;;0.77;0.43;;;;;;;;;;5108524;28;20598;-54
2022/01/04 06:27:14;;;;;;;0.68;0.40;;;;;;;;;;5122974;28;20130;-51
2022/01/04 06:29:40;;;;;;;1.17;0.40;;;;;;;;;;5121927;27;20031;-54
2022/01/04 06:32:10;;;;;;;0.55;0.20;;;;;;;;;;5119699;28;20546;-53
2022/01/04 06:34:36;;;;;;;2.20;0.30;;;;;;;;;;5123301;27;20041;-55
2022/01/04 06:37:01;;;;;;;0.15;0.15;;;;;;;;;;5121996;27;20427;-54
2022/01/04 06:39:27;;;;;;;0.50;0.22;;;;;;;;;;5121601;27;20433;-56
2022/01/04 06:41:53;;;;;;;0.68;0.20;;;;;;;;;;5122810;27;20029;-56
2022/01/04 06:44:18;;;;;;;0.30;0.30;;;;;;;;;;5122205;28;20611;-56
2022/01/04 06:46:45;;;;;;;0.50;0.20;;;;;;;;;;5123599;28;20625;-52
2022/01/04 06:49:18;;;;;;;0.98;0.35;;;;;;;;;;5120270;27;20468;-53
2022/01/04 06:51:45;;;;;;;0.30;0.30;;;;;;;;;;5123975;28;20042;-57
2022/01/04 06:54:12;;;;;;;0.50;0.30;;;;;;;;;;5121345;27;20031;-54
2022/01/04 06:56:39;;;;;;;0.68;0.22;;;;;;;;;;5119529;28;20495;-54
2022/01/04 06:59:05;;;;;;;0.20;0.20;;;;;;;;;;5122586;28;20046;-53
2022/01/04 07:01:31;;;;;;;0.80;0.25;;;;;;;;;;5122646;28;20498;-52
2022/01/04 07:03:57;;;;;;;0.40;0.40;;;;;;;;;;5119477;28;20026;-54
2022/01/04 07:06:23;;;;;;;2.53;1.15;;;;;;;;;;5122952;27;20495;-53
2022/01/04 07:08:48;;;;;;;3.65;2.00;;;;;;;;;;5122878;28;20348;-54
2022/01/04 07:11:14;;;;;;;2.85;1.20;;;;;;;;;;5120086;27;20475;-52
2022/01/04 07:13:40;;;;;;;1.25;0.77;;;;;;;;;;5121814;27;20027;-53
2022/01/04 07:16:05;;;;;;;3.22;1.02;;;;;;;;;;5121115;27;20023;-54
2022/01/04 07:18:31;;;;;;;1.40;0.75;;;;;;;;;;5100525;27;20353;-50
2022/01/04 07:20:56;;;;;;;1.88;1.00;;;;;;;;;;5080751;28;20759;-51
2022/01/04 07:23:22;;;;;;;1.35;0.60;;;;;;;;;;5067135;28;20586;-54
2022/01/04 07:25:48;;;;;;;0.40;0.35;;;;;;;;;;5067279;28;20522;-51
2022/01/04 07:28:14;;;;;;;1.00;0.50;;;;;;;;;;5067247;28;21411;-51
2022/01/04 07:30:39;;;;;;;0.65;0.40;;;;;;;;;;5069199;28;20021;-53
2022/01/04 07:33:05;;;;;;;0.75;0.30;;;;;;;;;;5066386;28;20503;-51
2022/01/04 07:35:30;;;;;;;2.58;0.40;;;;;;;;;;5068623;28;20070;-56
2022/01/04 07:37:56;;;;;;;0.98;0.40;;;;;;;;;;5068291;28;20130;-53
2022/01/04 07:40:21;;;;;;;0.25;0.15;;;;;;;;;;5067149;28;20454;-51
2022/01/04 07:42:47;;;;;;;0.20;0.20;;;;;;;;;;5067586;28;20507;-53
2022/01/04 07:45:14;;;;;;;0.17;0.10;;;;;;;;;;5064276;28;20043;-55
2022/01/04 07:47:41;;;;;;;1.15;0.50;;;;;;;;;;5067002;28;20032;-51
2022/01/04 07:50:07;;;;;;;0.28;0.20;;;;;;;;;;5067871;28;20111;-50
2022/01/04 07:52:33;;;;;;;1.35;0.20;;;;;;;;;;5066115;28;20165;-51
2022/01/04 07:54:59;;;;;;;0.25;0.20;;;;;;;;;;5067300;28;20083;-53
2022/01/04 07:57:24;;;;;;;1.08;0.30;;;;;;;;;;5064326;28;20024;-50
2022/01/04 07:59:49;;;;;;;1.48;0.30;;;;;;;;;;5067162;28;20388;-52
2022/01/04 08:02:15;;;;;;;0.50;0.22;;;;;;;;;;5067908;28;20063;-55
2022/01/04 08:04:40;;;;;;;0.32;0.22;;;;;;;;;;5065778;28;20024;-55
2022/01/04 08:07:06;;;;;;;1.25;0.30;;;;;;;;;;5067943;28;20020;-54
2022/01/04 08:09:32;;;;;;;0.57;0.30;;;;;;;;;;5067078;28;20418;-50
2022/01/04 08:11:58;;;;;;;0.40;0.22;;;;;;;;;;5064869;28;20058;-53
2022/01/04 08:14:23;;;;;;;0.73;0.30;;;;;;;;;;5067619;28;20056;-50
2022/01/04 08:16:49;;;;;;;0.30;0.30;;;;;;;;;;5066913;28;20029;-51
2022/01/04 08:19:14;;;;;;;0.73;0.45;;;;;;;;;;5086117;28;20035;-55
2022/01/04 08:21:40;;;;;;;0.40;0.30;;;;;;;;;;5089485;28;20027;-54
2022/01/04 08:24:06;;;;;;;0.57;0.17;;;;;;;;;;5070294;28;20089;-52
2022/01/04 08:26:31;;;;;;;0.20;0.20;;;;;;;;;;5088413;28;20488;-54
2022/01/04 08:28:57;;;;;;;1.35;0.40;;;;;;;;;;5086287;28;20447;-54
2022/01/04 08:31:23;;;;;;;0.93;0.40;;;;;;;;;;5088055;28;20043;-52
2022/01/04 08:33:48;;;;;;;0.70;0.50;;;;;;;;;;5087296;28;20032;-53
2022/01/04 08:36:13;;;;;;;0.82;0.30;;;;;;;;;;5087138;28;21431;-51
2022/01/04 08:38:39;;;;;;;1.50;0.30;;;;;;;;;;5088291;28;20023;-52
2022/01/04 08:41:05;;;;;;;1.77;0.35;;;;;;;;;;5085393;28;21119;-51
2022/01/04 08:43:31;;;;;;;1.48;0.38;;;;;;;;;;5085711;28;20035;-53
2022/01/04 08:45:56;;;;;;;0.55;0.30;;;;;;;;;;5088421;28;20480;-52
2022/01/04 08:48:22;;;;;;;2.10;0.90;;;;;;;;;;5084914;28;20337;-54
2022/01/04 08:50:48;;;;;;;2.90;1.60;;;;;;;;;;5086092;28;20476;-53
2022/01/04 08:53:14;;;;;;;2.88;1.00;;;;;;;;;;5084604;28;20096;-54
2022/01/04 08:55:40;;;;;;;1.13;0.63;;;;;;;;;;5085882;28;20020;-52
2022/01/04 08:58:07;;;;;;;0.38;0.30;;;;;;;;;;5084322;28;20375;-53
2022/01/04 09:00:33;;;;;;;1.00;0.43;;;;;;;;;;5086204;28;20049;-50
2022/01/04 09:03:00;;;;;;;2.05;0.20;;;;;;;;;;5086976;28;20036;-50
2022/01/04 09:05:27;;;;;;;1.08;0.20;;;;;;;;;;5086813;28;20065;-53
2022/01/04 09:07:53;;;;;;;1.08;0.25;;;;;;;;;;5085826;28;20027;-54
2022/01/04 09:10:18;;;;;;;1.35;0.30;;;;;;;;;;5086851;28;20482;-52
2022/01/04 09:15:45;;;;;;;1.92;0.35;;;;;;;;;;5087429;28;20115;-50
2022/01/04 09:20:54;;;;;;;1.35;0.50;;;;;;;;;;5085693;28;20031;-55
2022/01/04 09:23:22;;;;;;;2.28;0.50;;;;;;;;;;5085955;28;20028;-55
2022/01/04 09:25:49;;;;;;;1.10;0.70;;;;;;;;;;5085630;28;20507;-50
2022/01/04 09:28:15;;;;;;;1.10;0.50;;;;;;;;;;5083550;28;20146;-54
2022/01/04 09:30:41;;;;;;;1.02;0.38;;;;;;;;;;5084486;28;20020;-51
2022/01/04 09:33:07;;;;;;;1.27;0.50;;;;;;;;;;5086415;28;20122;-54
2022/01/04 09:35:36;;;;;;;0.75;0.50;;;;;;;;;;5088082;28;20102;-52
2022/01/04 09:38:03;;;;;;;2.03;0.45;;;;;;;;;;5085756;28;20071;-56
2022/01/04 09:40:29;;;;;;;0.80;0.43;;;;;;;;;;5084269;28;20054;-52
2022/01/04 09:42:54;;;;;;;0.93;0.43;;;;;;;;;;5084616;28;20039;-55
2022/01/04 09:45:20;;;;;;;1.83;0.50;;;;;;;;;;5085473;28;20122;-50
2022/01/04 09:47:46;;;;;;;2.60;0.43;;;;;;;;;;5087437;28;20030;-54
2022/01/04 09:50:11;;;;;;;0.57;0.30;;;;;;;;;;5086085;28;20036;-51
2022/01/04 09:52:42;;;;;;;0.93;0.47;;;;;;;;;;5070490;28;20027;-57
2022/01/04 09:55:10;;;;;;;1.30;0.60;;;;;;;;;;5087008;28;20499;-55
2022/01/04 09:57:36;;;;;;;0.60;0.40;;;;;;;;;;5084487;28;20430;-52
2022/01/04 10:00:04;;;;;;;1.90;0.30;;;;;;;;;;5084252;28;20066;-55
2022/01/04 10:02:30;;;;;;;0.43;0.25;;;;;;;;;;5085007;28;20024;-52
2022/01/04 10:05:25;;;;;;;0.20;0.20;;;;;;;;;;5085445;28;20028;-51
2022/01/04 10:08:02;;;;;;;0.80;0.20;;;;;;;;;;5086361;28;20527;-51
2022/01/04 10:10:28;;;;;;;0.15;0.15;;;;;;;;;;5083710;28;20028;-51
2022/01/04 10:12:57;;;;;;;0.40;0.20;;;;;;;;;;5086133;28;20078;-52
2022/01/04 10:15:35;;;;;;;0.30;0.20;;;;;;;;;;5084804;28;20063;-50
2022/01/04 10:18:18;;;;;;;0.50;0.20;;;;;;;;;;5086062;28;20063;-53
2022/01/04 10:21:12;;;;;;;1.25;0.20;;;;;;;;;;5083705;28;20098;-52
2022/01/04 10:23:51;;;;;;;1.45;0.17;;;;;;;;;;5080577;28;20426;-53
2022/01/04 10:26:25;;;;;;;0.45;0.22;;;;;;;;;;5087075;28;20024;-53
2022/01/04 10:28:53;;;;;;;0.25;0.20;;;;;;;;;;5083867;28;20433;-50
2022/01/04 10:31:19;;;;;;;0.20;0.20;;;;;;;;;;5083235;28;20028;-53
2022/01/04 10:33:51;;;;;;;0.15;0.10;;;;;;;;;;5073551;28;20395;-54
2022/01/04 10:36:19;;;;;;;4.30;0.70;;;;;;;;;;5070304;28;20740;-53
2022/01/04 10:38:46;;;;;;;0.80;0.30;;;;;;;;;;5069135;28;20136;-54
2022/01/04 10:41:25;;;;;;;0.55;0.30;;;;;;;;;;5077776;28;20028;-50
2022/01/04 10:43:54;;;;;;;0.20;0.20;;;;;;;;;;5086961;28;20256;-52
2022/01/04 10:46:31;;;;;;;0.70;0.40;;;;;;;;;;5083374;28;20201;-52
2022/01/04 10:48:56;;;;;;;1.05;0.17;;;;;;;;;;5084505;28;20039;-53
2022/01/04 10:51:23;;;;;;;0.55;0.00;;;;;;;;;;5084359;28;20036;-55
2022/01/04 10:53:57;;;;;;;0.40;0.20;;;;;;;;;;5083705;28;20067;-56
2022/01/04 10:56:34;;;;;;;0.68;0.08;;;;;;;;;;5086078;28;20406;-56
2022/01/04 10:59:04;;;;;;;1.08;0.00;;;;;;;;;;5086723;28;20039;-50
2022/01/04 11:01:39;;;;;;;0.57;0.08;;;;;;;;;;5086416;28;20096;-52
2022/01/04 11:04:12;;;;;;;1.17;0.17;;;;;;;;;;5089570;28;20385;-51
2022/01/04 11:06:38;;;;;;;0.45;0.20;;;;;;;;;;5086384;28;20039;-52
2022/01/04 11:09:05;;;;;;;0.50;0.13;;;;;;;;;;5088012;28;20092;-55
2022/01/04 11:11:30;;;;;;;0.20;0.10;;;;;;;;;;5087223;28;20027;-56
2022/01/04 11:13:58;;;;;;;0.95;0.40;;;;;;;;;;5089098;28;20027;-57
2022/01/04 11:16:26;;;;;;;0.30;0.20;;;;;;;;;;5089842;28;20019;-55
2022/01/04 11:18:53;;;;;;;2.05;0.60;;;;;;;;;;5088737;28;20024;-52
2022/01/04 11:21:24;;;;;;;0.60;0.32;;;;;;;;;;5087832;28;20146;-56
2022/01/04 11:23:52;;;;;;;1.23;0.50;;;;;;;;;;5086808;28;20036;-53
2022/01/04 11:26:19;;;;;;;1.88;0.50;;;;;;;;;;5088668;28;20153;-56
2022/01/04 11:28:49;;;;;;;0.75;0.50;;;;;;;;;;5087854;28;20744;-58
2022/01/04 11:32:02;;;;;;;0.80;0.60;;;;;;;;;;5071751;28;20063;-52
2022/01/04 11:34:49;;;;;;;1.08;0.38;;;;;;;;;;5065369;28;20047;-54
2022/01/04 11:37:20;;;;;;;0.57;0.50;;;;;;;;;;5087919;28;20088;-54
2022/01/04 11:39:46;;;;;;;5.80;0.60;;;;;;;;;;5088090;28;20035;-56
2022/01/04 11:42:31;;;;;;;0.43;0.40;;;;;;;;;;5087769;28;20016;-55
2022/01/04 11:44:58;;;;;;;0.70;0.52;;;;;;;;;;5088919;28;20078;-52
2022/01/04 11:47:26;;;;;;;0.85;0.52;;;;;;;;;;5088333;28;20031;-51
2022/01/04 11:50:18;;;;;;;0.77;0.20;;;;;;;;;;5087490;28;20046;-53
2022/01/04 11:52:53;;;;;;;1.17;0.30;;;;;;;;;;5075357;28;20067;-54
2022/01/04 11:55:21;;;;;;;0.93;0.20;;;;;;;;;;5087883;28;20866;-55
2022/01/04 11:57:48;;;;;;;0.20;0.20;;;;;;;;;;5088864;28;20396;-52
2022/01/04 12:00:23;;;;;;;0.20;0.20;;;;;;;;;;5088720;28;20039;-56
2022/01/04 12:03:09;;;;;;;1.00;0.47;;;;;;;;;;5086370;28;20418;-53
2022/01/04 12:05:38;;;;;;;1.30;0.32;;;;;;;;;;5087460;28;20111;-55
2022/01/04 12:08:21;;;;;;;1.60;0.45;;;;;;;;;;5086863;28;20400;-52
2022/01/04 12:10:50;;;;;;;0.25;0.22;;;;;;;;;;5088344;28;20028;-55
2022/01/04 12:13:20;;;;;;;1.30;0.30;;;;;;;;;;5086099;28;20086;-53
2022/01/04 12:15:57;;;;;;;1.45;0.45;;;;;;;;;;5087055;28;20052;-53
2022/01/04 12:18:23;;;;;;;0.35;0.22;;;;;;;;;;5073701;28;20336;-56
2022/01/04 12:20:53;;;;;;;0.52;0.30;;;;;;;;;;5103254;27;20035;-50
2022/01/04 12:26:03;;;;;;;1.27;0.50;;;;;;;;;;5097683;27;20035;-55
2022/01/04 12:28:36;;;;;;;0.65;0.50;;;;;;;;;;5071282;28;20025;-51
2022/01/04 12:31:15;;;;;;;0.30;0.30;;;;;;;;;;4974302;28;20064;-52
2022/01/04 12:33:42;;;;;;;0.50;0.50;;;;;;;;;;4894754;29;20049;-55
2022/01/04 12:36:08;;;;;;;0.55;0.43;;;;;;;;;;4821939;29;20026;-54
2022/01/04 12:38:34;;;;;;;0.32;0.30;;;;;;;;;;4726828;29;20146;-54
2022/01/04 12:41:01;;;;;;;1.55;0.40;;;;;;;;;;4596757;30;20492;-53
2022/01/04 12:44:37;;;;;;;1.20;0.70;;;;;;;;;;5161471;27;20401;-55
2022/01/04 12:47:04;;;;;;;0.63;0.43;;;;;;;;;;5151471;27;20034;-56
2022/01/04 12:49:32;;;;;;;0.50;0.50;;;;;;;;;;5144425;27;20129;-53
2022/01/04 12:52:08;;;;;;;0.73;0.47;;;;;;;;;;5040616;27;2004813;-55
2022/01/04 12:54:39;;;;;;;0.88;0.60;;;;;;;;;;5024743;28;20021;-51
2022/01/04 12:57:11;;;;;;;0.57;0.57;;;;;;;;;;5028451;28;20580;-53
2022/01/04 12:59:49;;;;;;;1.10;0.60;;;;;;;;;;5033274;28;20044;-51
2022/01/04 13:02:29;;;;;;;2.22;0.40;;;;;;;;;;5032458;28;20064;-53
2022/01/04 13:04:57;;;;;;;1.67;0.70;;;;;;;;;;5030158;28;20482;-55
2022/01/04 13:07:28;;;;;;;0.50;0.50;;;;;;;;;;5031738;28;20079;-52
2022/01/04 13:10:06;;;;;;;2.15;0.60;;;;;;;;;;5026786;28;20029;-53
2022/01/04 13:12:34;;;;;;;1.58;0.70;;;;;;;;;;5011598;28;20498;-54
2022/01/04 13:15:01;;;;;;;1.75;0.63;;;;;;;;;;5022249;28;21246;-58
2022/01/04 13:17:28;;;;;;;1.17;0.57;;;;;;;;;;5010207;28;20033;-55
2022/01/04 13:19:55;;;;;;;0.77;0.60;;;;;;;;;;5012921;28;20037;-51
2022/01/04 13:22:23;;;;;;;0.77;0.65;;;;;;;;;;5005858;28;20440;-56
2022/01/04 13:24:50;;;;;;;0.70;0.50;;;;;;;;;;5015102;28;20030;-56
2022/01/04 13:27:24;;;;;;;0.77;0.57;;;;;;;;;;5011267;28;20034;-52
2022/01/04 13:29:57;;;;;;;1.55;0.50;;;;;;;;;;5012514;28;20510;-53
2022/01/04 13:32:25;;;;;;;0.60;0.60;;;;;;;;;;5011666;28;20026;-53
2022/01/04 13:34:54;;;;;;;1.38;0.60;;;;;;;;;;5009734;28;20041;-53
2022/01/04 13:37:19;;;;;;;0.45;0.45;;;;;;;;;;4994310;28;20053;-51
2022/01/04 13:39:45;;;;;;;1.38;0.95;;;;;;;;;;5008411;28;20029;-55
2022/01/04 13:42:25;;;;;;;2.08;0.70;;;;;;;;;;5010439;28;20165;-54
2022/01/04 13:44:58;;;;;;;1.17;0.60;;;;;;;;;;5006625;28;20462;-55
2022/01/04 13:47:24;;;;;;;1.75;0.65;;;;;;;;;;5006471;28;20037;-54
2022/01/04 13:49:50;;;;;;;1.52;0.70;;;;;;;;;;5010724;28;20079;-57
2022/01/04 13:52:18;;;;;;;0.80;0.70;;;;;;;;;;5019394;28;20033;-52
2022/01/04 13:54:43;;;;;;;0.57;0.50;;;;;;;;;;5045904;28;20124;-55
2022/01/04 13:57:15;;;;;;;1.85;0.70;;;;;;;;;;5030872;28;20184;-57
2022/01/04 13:59:40;;;;;;;0.88;0.77;;;;;;;;;;5031319;28;20290;-56
2022/01/04 14:02:25;;;;;;;0.85;0.50;;;;;;;;;;5034400;28;20040;-56
2022/01/04 14:05:11;;;;;;;0.95;0.50;;;;;;;;;;5033537;28;20418;-56
2022/01/04 14:07:37;;;;;;;1.63;0.70;;;;;;;;;;5035028;28;20525;-52
2022/01/04 14:10:02;;;;;;;0.70;0.63;;;;;;;;;;5035444;28;20153;-51
2022/01/04 14:12:28;;;;;;;0.65;0.60;;;;;;;;;;5030673;28;20033;-53
2022/01/04 14:14:54;;;;;;;0.60;0.60;;;;;;;;;;5034040;28;20026;-55
2022/01/04 14:17:24;;;;;;;1.02;0.70;;;;;;;;;;5033325;28;20410;-55
2022/01/04 14:19:54;;;;;;;1.63;0.80;;;;;;;;;;5031783;28;20091;-50
2022/01/04 14:22:25;;;;;;;1.45;1.10;;;;;;;;;;5033003;28;20026;-52
2022/01/04 14:25:06;;;;;;;1.40;1.00;;;;;;;;;;5031698;28;20515;-54
2022/01/04 14:27:33;;;;;;;1.40;0.70;;;;;;;;;;5031514;28;20082;-55
2022/01/04 14:30:10;;;;;;;0.68;0.50;;;;;;;;;;5031248;28;20028;-55
2022/01/04 14:32:37;;;;;;;0.63;0.60;;;;;;;;;;5032405;28;20021;-54
2022/01/04 14:35:08;;;;;;;1.85;0.63;;;;;;;;;;5032270;28;20484;-54
2022/01/04 14:37:34;;;;;;;1.35;0.52;;;;;;;;;;5047197;28;20128;-54
2022/01/04 14:40:00;;;;;;;2.10;0.60;;;;;;;;;;5031228;28;20051;-52
2022/01/04 14:42:27;;;;;;;1.05;0.63;;;;;;;;;;5029393;28;20029;-52
2022/01/04 14:44:52;;;;;;;0.57;0.45;;;;;;;;;;5029599;28;20025;-52
2022/01/04 14:47:18;;;;;;;1.95;0.55;;;;;;;;;;5033975;28;20047;-51
2022/01/04 14:49:44;;;;;;;0.77;0.40;;;;;;;;;;5010902;28;20060;-52
2022/01/04 14:52:10;;;;;;;0.45;0.45;;;;;;;;;;5030039;28;20064;-55
2022/01/04 14:54:36;;;;;;;1.52;0.60;;;;;;;;;;5027881;28;20053;-53
2022/01/04 14:57:02;;;;;;;1.80;0.75;;;;;;;;;;5027762;28;20025;-52
2022/01/04 14:59:28;;;;;;;0.50;0.50;;;;;;;;;;5028968;28;20468;-52
2022/01/04 15:01:54;;;;;;;0.80;0.52;;;;;;;;;;5026029;28;20113;-52
2022/01/04 15:04:19;;;;;;;0.90;0.60;;;;;;;;;;5029737;28;20045;-52
2022/01/04 15:06:45;;;;;;;0.82;0.63;;;;;;;;;;5026095;28;20071;-55
2022/01/04 15:09:13;;;;;;;1.48;0.60;;;;;;;;;;5027491;28;20036;-54
2022/01/04 15:11:40;;;;;;;0.80;0.50;;;;;;;;;;5027701;28;20339;-53
2022/01/04 15:14:05;;;;;;;0.77;0.68;;;;;;;;;;5025294;28;20030;-53
2022/01/04 15:16:32;;;;;;;1.15;0.50;;;;;;;;;;5027937;28;20033;-54